Time;durP1;ratioP1;P1;durP2;ratioP2;P2;SDS_P1;SDS_P2;PMS_P1;PMS_P2;Temp;Humidity;BMP_temperature;BMP_pressure;BME280_temperature;BME280_humidity;BME280_pressure;Samples;Min_cycle;Max_cycle;Signal;HPM_P1;HPM_P2
2022/06/01 00:00:01;;;;;;;;;;;;;;;;;;5028851;28;20239;-75
2022/06/01 00:02:27;;;;;;;;;;;;;;;;;;5061811;28;19928;-75
2022/06/01 00:04:52;;;;;;;;;;;;;;;;;;5027654;28;19917;-76
2022/06/01 00:07:19;;;;;;;;;;;;;;;;;;5062337;28;20267;-77
2022/06/01 00:09:44;;;;;;;;;;;;;;;;;;5015084;28;19960;-77
2022/06/01 00:12:11;;;;;;;;;;;;;;;;;;5031431;28;19921;-78
2022/06/01 00:14:36;;;;;;;;;;;;;;;;;;5031197;28;19918;-78
2022/06/01 00:17:02;;;;;;;;;;;;;;;;;;5015208;28;20406;-78
2022/06/01 00:19:28;;;;;;;;;;;;;;;;;;5014451;28;19971;-77
2022/06/01 00:22:12;;;;;;;;;;;;;;;;;;5013876;28;19921;-77
2022/06/01 00:24:44;;;;;;;;;;;;;;;;;;5029488;28;19983;-77
2022/06/01 00:27:10;;;;;;;;;;;;;;;;;;5013490;28;20343;-77
2022/06/01 00:29:36;;;;;;;;;;;;;;;;;;5030276;28;19924;-77
2022/06/01 00:32:03;;;;;;;;;;;;;;;;;;5030384;28;19926;-77
2022/06/01 00:34:28;;;;;;;;;;;;;;;;;;5013656;28;19979;-77
2022/06/01 00:36:55;;;;;;;;;;;;;;;;;;5013805;28;19917;-77
2022/06/01 00:39:23;;;;;;;;;;;;;;;;;;5029842;28;19966;-77
2022/06/01 00:41:48;;;;;;;;;;;;;;;;;;5012958;28;19917;-77
2022/06/01 00:44:14;;;;;;;;;;;;;;;;;;5012809;28;19928;-77
2022/06/01 00:46:42;;;;;;;;;;;;;;;;;;5014063;28;19918;-77
2022/06/01 00:49:20;;;;;;;;;;;;;;;;;;5029435;28;19918;-77
2022/06/01 00:51:46;;;;;;;;;;;;;;;;;;5062608;28;20407;-77
2022/06/01 00:54:12;;;;;;;;;;;;;;;;;;5012376;28;19972;-77
2022/06/01 00:56:40;;;;;;;;;;;;;;;;;;5045602;28;19952;-77
2022/06/01 00:59:07;;;;;;;;;;;;;;;;;;5029337;28;19922;-77
2022/06/01 01:01:33;;;;;;;;;;;;;;;;;;5012971;28;19917;-77
2022/06/01 01:04:00;;;;;;;;;;;;;;;;;;5012696;28;19917;-77
2022/06/01 01:06:27;;;;;;;;;;;;;;;;;;5029365;28;19925;-77
2022/06/01 01:08:54;;;;;;;;;;;;;;;;;;5062420;28;19918;-77
2022/06/01 01:11:21;;;;;;;;;;;;;;;;;;5029380;28;19917;-77
2022/06/01 01:13:50;;;;;;;;;;;;;;;;;;5046262;28;19938;-77
2022/06/01 01:16:20;;;;;;;;;;;;;;;;;;5030258;28;20047;-77
2022/06/01 01:18:46;;;;;;;;;;;;;;;;;;5013497;28;19917;-77
2022/06/01 01:21:14;;;;;;;;;;;;;;;;;;5029305;28;20063;-77
2022/06/01 01:23:51;;;;;;;;;;;;;;;;;;5013782;28;19928;-77
2022/06/01 01:26:17;;;;;;;;;;;;;;;;;;5045666;28;19925;-77
2022/06/01 01:28:43;;;;;;;;;;;;;;;;;;5013080;28;19917;-77
2022/06/01 01:31:16;;;;;;;;;;;;;;;;;;5029228;28;19918;-77
2022/06/01 01:33:45;;;;;;;;;;;;;;;;;;5024797;28;19917;-77
2022/06/01 01:36:14;;;;;;;;;;;;;;;;;;5008429;28;19922;-77
2022/06/01 01:38:44;;;;;;;;;;;;;;;;;;5008928;28;19925;-77
2022/06/01 01:41:13;;;;;;;;;;;;;;;;;;5008413;28;19968;-77
2022/06/01 01:43:46;;;;;;;;;;;;;;;;;;5008423;28;19922;-77
2022/06/01 01:46:11;;;;;;;;;;;;;;;;;;4992187;28;20013;-77
2022/06/01 01:48:37;;;;;;;;;;;;;;;;;;5022659;28;19957;-77
2022/06/01 01:51:03;;;;;;;;;;;;;;;;;;5094464;28;19917;-77
2022/06/01 01:53:32;;;;;;;;;;;;;;;;;;5093807;28;19918;-77
2022/06/01 01:56:04;;;;;;;;;;;;;;;;;;5094126;28;20444;-77
2022/06/01 01:58:49;;;;;;;;;;;;;;;;;;5040748;28;19922;-77
2022/06/01 02:01:19;;;;;;;;;;;;;;;;;;5040958;28;19918;-77
2022/06/01 02:06:03;;;;;;;;;;;;;;;;;;5011411;28;19918;-77
2022/06/01 02:06:55;;;;;;;;;;;;;;;;;;5011191;28;19981;-77
2022/06/01 02:09:22;;;;;;;;;;;;;;;;;;5010853;28;21370;-77
2022/06/01 02:14:45;;;;;;;;;;;;;;;;;;5043891;28;19993;-76
2022/06/01 02:17:10;;;;;;;;;;;;;;;;;;5010595;28;19917;-76
2022/06/01 02:19:47;;;;;;;;;;;;;;;;;;5026246;28;19917;-76
2022/06/01 02:22:13;;;;;;;;;;;;;;;;;;5027795;28;19918;-76
2022/06/01 02:24:39;;;;;;;;;;;;;;;;;;5010669;28;19966;-76
2022/06/01 02:27:05;;;;;;;;;;;;;;;;;;5026903;28;19914;-76
2022/06/01 02:29:41;;;;;;;;;;;;;;;;;;5010823;28;19918;-76
2022/06/01 02:32:09;;;;;;;;;;;;;;;;;;5019255;28;19918;-76
2022/06/01 02:34:37;;;;;;;;;;;;;;;;;;5007036;28;19918;-75
2022/06/01 02:37:06;;;;;;;;;;;;;;;;;;5023549;28;19918;-76
2022/06/01 02:39:36;;;;;;;;;;;;;;;;;;4991761;28;20336;-76
2022/06/01 02:42:26;;;;;;;;;;;;;;;;;;5023257;28;19981;-76
2022/06/01 02:44:56;;;;;;;;;;;;;;;;;;5031357;27;19937;-76
2022/06/01 02:47:26;;;;;;;;;;;;;;;;;;5026407;28;19952;-76
2022/06/01 02:49:51;;;;;;;;;;;;;;;;;;5029784;28;19928;-77
2022/06/01 02:52:17;;;;;;;;;;;;;;;;;;5044025;28;20008;-76
2022/06/01 02:54:42;;;;;;;;;;;;;;;;;;5011062;28;19963;-76
2022/06/01 02:57:07;;;;;;;;;;;;;;;;;;5009335;28;20011;-76
2022/06/01 02:59:33;;;;;;;;;;;;;;;;;;5009594;28;19921;-76
2022/06/01 03:01:59;;;;;;;;;;;;;;;;;;5009748;28;19917;-75
2022/06/01 03:04:26;;;;;;;;;;;;;;;;;;5009978;28;19918;-75
2022/06/01 03:06:55;;;;;;;;;;;;;;;;;;5025858;28;19987;-75
2022/06/01 03:09:21;;;;;;;;;;;;;;;;;;5010120;28;20299;-75
2022/06/01 03:11:47;;;;;;;;;;;;;;;;;;5025978;28;19978;-75
2022/06/01 03:14:13;;;;;;;;;;;;;;;;;;5026023;28;20371;-75
2022/06/01 03:16:38;;;;;;;;;;;;;;;;;;5009807;28;20012;-75
2022/06/01 03:19:05;;;;;;;;;;;;;;;;;;5009794;28;19925;-75
2022/06/01 03:21:30;;;;;;;;;;;;;;;;;;5007618;28;19917;-75
2022/06/01 03:23:56;;;;;;;;;;;;;;;;;;5024037;28;19921;-75
2022/06/01 03:26:22;;;;;;;;;;;;;;;;;;5057153;28;20061;-75
2022/06/01 03:28:48;;;;;;;;;;;;;;;;;;5023982;28;19918;-75
2022/06/01 03:31:14;;;;;;;;;;;;;;;;;;5007872;28;19948;-75
2022/06/01 03:33:39;;;;;;;;;;;;;;;;;;5012316;28;19962;-75
2022/06/01 03:36:05;;;;;;;;;;;;;;;;;;5014131;28;20008;-75
2022/06/01 03:38:34;;;;;;;;;;;;;;;;;;5029371;28;20294;-75
2022/06/01 03:41:00;;;;;;;;;;;;;;;;;;5029367;28;20004;-75
2022/06/01 03:43:26;;;;;;;;;;;;;;;;;;5013878;28;20355;-75
2022/06/01 03:45:58;;;;;;;;;;;;;;;;;;5045666;28;19922;-75
2022/06/01 03:48:27;;;;;;;;;;;;;;;;;;5012816;28;19918;-75
2022/06/01 03:50:54;;;;;;;;;;;;;;;;;;5029112;28;19968;-75
2022/06/01 03:53:24;;;;;;;;;;;;;;;;;;5029612;28;19925;-75
2022/06/01 03:55:51;;;;;;;;;;;;;;;;;;5028869;28;19917;-75
2022/06/01 03:58:18;;;;;;;;;;;;;;;;;;5045549;28;20395;-75
2022/06/01 04:00:45;;;;;;;;;;;;;;;;;;5012466;28;19917;-75
2022/06/01 04:03:11;;;;;;;;;;;;;;;;;;5012186;28;19929;-75
2022/06/01 04:05:37;;;;;;;;;;;;;;;;;;5061939;28;19917;-75
2022/06/01 04:08:04;;;;;;;;;;;;;;;;;;5029050;28;19918;-75
2022/06/01 04:10:32;;;;;;;;;;;;;;;;;;5028841;28;19966;-75
2022/06/01 04:12:58;;;;;;;;;;;;;;;;;;5028949;28;19949;-75
2022/06/01 04:15:25;;;;;;;;;;;;;;;;;;5029029;28;19917;-75
2022/06/01 04:17:51;;;;;;;;;;;;;;;;;;5028892;28;20408;-75
2022/06/01 04:20:19;;;;;;;;;;;;;;;;;;5028698;28;19955;-75
2022/06/01 04:22:46;;;;;;;;;;;;;;;;;;5028448;28;19918;-75
2022/06/01 04:25:13;;;;;;;;;;;;;;;;;;5013374;28;19921;-75
2022/06/01 04:27:40;;;;;;;;;;;;;;;;;;5028418;28;19918;-75
2022/06/01 04:30:06;;;;;;;;;;;;;;;;;;5013038;28;20385;-75
2022/06/01 04:32:32;;;;;;;;;;;;;;;;;;5012027;28;19921;-75
2022/06/01 04:34:58;;;;;;;;;;;;;;;;;;5044610;28;19917;-75
2022/06/01 04:37:24;;;;;;;;;;;;;;;;;;5028241;28;19960;-75
2022/06/01 04:39:49;;;;;;;;;;;;;;;;;;5013097;28;19925;-75
2022/06/01 04:42:16;;;;;;;;;;;;;;;;;;5027866;28;19914;-75
2022/06/01 04:44:41;;;;;;;;;;;;;;;;;;5028281;28;19922;-75
2022/06/01 04:47:08;;;;;;;;;;;;;;;;;;5011870;28;19940;-75
2022/06/01 04:49:33;;;;;;;;;;;;;;;;;;5011724;28;19917;-75
2022/06/01 04:51:58;;;;;;;;;;;;;;;;;;5044622;28;19967;-75
2022/06/01 04:54:23;;;;;;;;;;;;;;;;;;5028167;28;19921;-75
2022/06/01 04:56:49;;;;;;;;;;;;;;;;;;5028001;28;19924;-75
2022/06/01 04:59:17;;;;;;;;;;;;;;;;;;5012604;28;19925;-76
2022/06/01 05:01:42;;;;;;;;;;;;;;;;;;4998559;28;19918;-76
2022/06/01 05:04:08;;;;;;;;;;;;;;;;;;4993184;28;19971;-76
2022/06/01 05:06:33;;;;;;;;;;;;;;;;;;5008027;28;19995;-75
2022/06/01 05:08:58;;;;;;;;;;;;;;;;;;5008159;28;20000;-75
2022/06/01 05:11:24;;;;;;;;;;;;;;;;;;4993069;28;19918;-74
2022/06/01 05:13:50;;;;;;;;;;;;;;;;;;4991831;28;19918;-75
2022/06/01 05:16:16;;;;;;;;;;;;;;;;;;5024409;28;20016;-75
2022/06/01 05:18:42;;;;;;;;;;;;;;;;;;5024283;28;19965;-76
2022/06/01 05:21:07;;;;;;;;;;;;;;;;;;5024149;28;19918;-75
2022/06/01 05:23:35;;;;;;;;;;;;;;;;;;4992664;28;19922;-75
2022/06/01 05:26:01;;;;;;;;;;;;;;;;;;5024273;28;20382;-75
2022/06/01 05:28:29;;;;;;;;;;;;;;;;;;5027373;27;19924;-75
2022/06/01 05:30:58;;;;;;;;;;;;;;;;;;5027173;28;19917;-75
2022/06/01 05:33:24;;;;;;;;;;;;;;;;;;5028308;28;20020;-76
2022/06/01 05:35:49;;;;;;;;;;;;;;;;;;5011923;28;20074;-75
2022/06/01 05:38:15;;;;;;;;;;;;;;;;;;5012028;28;19917;-76
2022/06/01 05:40:40;;;;;;;;;;;;;;;;;;5044036;28;20341;-75
2022/06/01 05:43:10;;;;;;;;;;;;;;;;;;5027449;28;20275;-75
2022/06/01 05:45:36;;;;;;;;;;;;;;;;;;5010980;28;19918;-75
2022/06/01 05:48:06;;;;;;;;;;;;;;;;;;5027239;28;19917;-75
2022/06/01 05:50:32;;;;;;;;;;;;;;;;;;5026644;28;19928;-76
2022/06/01 05:52:57;;;;;;;;;;;;;;;;;;5010008;28;19917;-74
2022/06/01 05:55:22;;;;;;;;;;;;;;;;;;5042819;28;20336;-74
2022/06/01 05:57:48;;;;;;;;;;;;;;;;;;5009851;28;19921;-74
2022/06/01 06:00:16;;;;;;;;;;;;;;;;;;5009035;28;20323;-74
2022/06/01 06:02:41;;;;;;;;;;;;;;;;;;4990644;28;19925;-75
2022/06/01 06:07:52;;;;;;;;;;;;;;;;;;5023207;28;20187;-76
2022/06/01 06:10:17;;;;;;;;;;;;;;;;;;5006729;28;20244;-75
2022/06/01 06:12:43;;;;;;;;;;;;;;;;;;4991676;28;20397;-76
2022/06/01 06:15:09;;;;;;;;;;;;;;;;;;5005443;28;19925;-75
2022/06/01 06:17:35;;;;;;;;;;;;;;;;;;5022525;28;19922;-74
2022/06/01 06:20:01;;;;;;;;;;;;;;;;;;5078657;28;20039;-75
2022/06/01 06:22:27;;;;;;;;;;;;;;;;;;5096443;28;20016;-75
2022/06/01 06:24:54;;;;;;;;;;;;;;;;;;5096553;28;19916;-75
2022/06/01 06:27:20;;;;;;;;;;;;;;;;;;5113282;28;19955;-75
2022/06/01 06:29:45;;;;;;;;;;;;;;;;;;5112657;28;20373;-75
2022/06/01 06:32:11;;;;;;;;;;;;;;;;;;5113920;28;19919;-75
2022/06/01 06:34:38;;;;;;;;;;;;;;;;;;5114039;28;20349;-75
2022/06/01 06:37:04;;;;;;;;;;;;;;;;;;5095816;28;19922;-75
2022/06/01 06:39:30;;;;;;;;;;;;;;;;;;5113735;28;19915;-76
2022/06/01 06:41:55;;;;;;;;;;;;;;;;;;5146678;27;20011;-77
2022/06/01 06:44:26;;;;;;;;;;;;;;;;;;5081819;28;19979;-78
2022/06/01 06:46:52;;;;;;;;;;;;;;;;;;5006735;28;19924;-76
2022/06/01 06:49:17;;;;;;;;;;;;;;;;;;5039831;28;19918;-76
2022/06/01 06:51:43;;;;;;;;;;;;;;;;;;4991561;28;19922;-76
2022/06/01 06:54:10;;;;;;;;;;;;;;;;;;5024456;28;19917;-78
2022/06/01 06:56:37;;;;;;;;;;;;;;;;;;5007939;28;19959;-78
2022/06/01 06:59:03;;;;;;;;;;;;;;;;;;5022972;28;19972;-77
2022/06/01 07:01:29;;;;;;;;;;;;;;;;;;5006966;28;19953;-77
2022/06/01 07:03:54;;;;;;;;;;;;;;;;;;4991357;28;20393;-77
2022/06/01 07:06:20;;;;;;;;;;;;;;;;;;5017154;28;19918;-79
2022/06/01 07:08:50;;;;;;;;;;;;;;;;;;5013950;28;19960;-77
2022/06/01 07:11:17;;;;;;;;;;;;;;;;;;4997595;28;19918;-76
2022/06/01 07:13:42;;;;;;;;;;;;;;;;;;5014351;27;19926;-76
2022/06/01 07:16:24;;;;;;;;;;;;;;;;;;4997748;28;20416;-76
2022/06/01 07:18:51;;;;;;;;;;;;;;;;;;5013063;28;19918;-77
2022/06/01 07:21:19;;;;;;;;;;;;;;;;;;5017334;28;19918;-82
2022/06/01 07:23:45;;;;;;;;;;;;;;;;;;5019506;28;19922;-81
2022/06/01 07:26:12;;;;;;;;;;;;;;;;;;5004996;28;19918;-81
2022/06/01 07:28:38;;;;;;;;;;;;;;;;;;5018735;28;19922;-77
2022/06/01 07:31:04;;;;;;;;;;;;;;;;;;5018845;28;19918;-79
2022/06/01 07:33:33;;;;;;;;;;;;;;;;;;5017593;28;20438;-78
2022/06/01 07:35:59;;;;;;;;;;;;;;;;;;5034192;28;19961;-78
2022/06/01 07:43:54;;;;;;;;;;;;;;;;;;5018688;28;19932;-78
2022/06/01 07:46:20;;;;;;;;;;;;;;;;;;5018670;28;20390;-78
2022/06/01 07:48:49;;;;;;;;;;;;;;;;;;5025589;27;19918;-78
2022/06/01 07:51:15;;;;;;;;;;;;;;;;;;5013307;28;20012;-78
2022/06/01 07:53:40;;;;;;;;;;;;;;;;;;4998602;28;19918;-78
2022/06/01 07:56:06;;;;;;;;;;;;;;;;;;5014869;28;19925;-78
2022/06/01 07:58:31;;;;;;;;;;;;;;;;;;5001583;28;19925;-82
2022/06/01 08:00:58;;;;;;;;;;;;;;;;;;5033904;27;19953;-82
2022/06/01 08:03:24;;;;;;;;;;;;;;;;;;5033550;27;19922;-82
2022/06/01 08:05:53;;;;;;;;;;;;;;;;;;5035123;27;19925;-81
2022/06/01 08:08:18;;;;;;;;;;;;;;;;;;5036977;27;19918;-81
2022/06/01 08:10:43;;;;;;;;;;;;;;;;;;5017986;28;19924;-81
2022/06/01 08:13:12;;;;;;;;;;;;;;;;;;5033078;27;20062;-78
2022/06/01 08:15:39;;;;;;;;;;;;;;;;;;5000863;28;19925;-82
2022/06/01 08:18:05;;;;;;;;;;;;;;;;;;5099188;28;19922;-80
2022/06/01 08:20:31;;;;;;;;;;;;;;;;;;4997294;28;19947;-80
2022/06/01 08:22:56;;;;;;;;;;;;;;;;;;4995965;28;19922;-80
2022/06/01 08:25:22;;;;;;;;;;;;;;;;;;4996412;28;19964;-79
2022/06/01 08:27:48;;;;;;;;;;;;;;;;;;5082649;28;19918;-79
2022/06/01 08:30:15;;;;;;;;;;;;;;;;;;5082672;28;19918;-79
2022/06/01 08:32:41;;;;;;;;;;;;;;;;;;5015897;28;19949;-80
2022/06/01 08:35:11;;;;;;;;;;;;;;;;;;5015142;28;19917;-80
2022/06/01 08:37:37;;;;;;;;;;;;;;;;;;5034832;28;19940;-82
2022/06/01 08:40:06;;;;;;;;;;;;;;;;;;5037089;28;19918;-82
2022/06/01 08:42:32;;;;;;;;;;;;;;;;;;5008043;28;19921;-82
2022/06/01 08:45:05;;;;;;;;;;;;;;;;;;5022649;28;20436;-82
2022/06/01 08:47:48;;;;;;;;;;;;;;;;;;5038589;28;19924;-80
2022/06/01 08:50:21;;;;;;;;;;;;;;;;;;5057804;28;20420;-78
2022/06/01 08:52:50;;;;;;;;;;;;;;;;;;5136945;27;19964;-80
2022/06/01 08:55:17;;;;;;;;;;;;;;;;;;5151314;27;19916;-78
2022/06/01 08:57:50;;;;;;;;;;;;;;;;;;5120189;28;19924;-80
2022/06/01 09:00:17;;;;;;;;;;;;;;;;;;5122312;28;19923;-78
2022/06/01 09:03:02;;;;;;;;;;;;;;;;;;5150919;27;19927;-80
2022/06/01 09:05:59;;;;;;;;;;;;;;;;;;5096245;28;19918;-79
2022/06/01 09:08:38;;;;;;;;;;;;;;;;;;5009829;28;20340;-80
2022/06/01 09:11:07;;;;;;;;;;;;;;;;;;5026554;28;20008;-78
2022/06/01 09:13:38;;;;;;;;;;;;;;;;;;5009899;28;19922;-80
2022/06/01 09:16:09;;;;;;;;;;;;;;;;;;5011730;28;19952;-77
2022/06/01 09:18:43;;;;;;;;;;;;;;;;;;4993794;28;20352;-78
2022/06/01 09:24:04;;;;;;;;;;;;;;;;;;4992567;28;19940;-77
2022/06/01 09:26:31;;;;;;;;;;;;;;;;;;5008732;28;19918;-80
2022/06/01 09:28:58;;;;;;;;;;;;;;;;;;5010266;28;19922;-79
2022/06/01 09:31:28;;;;;;;;;;;;;;;;;;4994784;28;19924;-77
2022/06/01 09:34:12;;;;;;;;;;;;;;;;;;5007142;28;19924;-77
2022/06/01 09:36:47;;;;;;;;;;;;;;;;;;5078409;28;20315;-77
2022/06/01 09:39:17;;;;;;;;;;;;;;;;;;5023344;28;20348;-78
2022/06/01 09:41:43;;;;;;;;;;;;;;;;;;5153385;27;19916;-78
2022/06/01 09:44:17;;;;;;;;;;;;;;;;;;5101495;28;19926;-79
2022/06/01 09:46:49;;;;;;;;;;;;;;;;;;5117976;28;19916;-80
2022/06/01 09:49:21;;;;;;;;;;;;;;;;;;5138564;27;19937;-78
2022/06/01 09:51:49;;;;;;;;;;;;;;;;;;5116787;28;19922;-78
2022/06/01 09:54:20;;;;;;;;;;;;;;;;;;5137519;27;20372;-78
2022/06/01 09:56:48;;;;;;;;;;;;;;;;;;5123286;28;19915;-79
2022/06/01 10:07:46;;;;;;;;;;;;;;;;;;5013763;28;19919;-78
2022/06/01 10:10:26;;;;;;;;;;;;;;;;;;5028882;28;19921;-78
2022/06/01 10:12:58;;;;;;;;;;;;;;;;;;5027531;28;19947;-77
2022/06/01 10:15:30;;;;;;;;;;;;;;;;;;5010624;28;19917;-76
2022/06/01 10:18:01;;;;;;;;;;;;;;;;;;5010639;28;19917;-76
2022/06/01 10:20:30;;;;;;;;;;;;;;;;;;5013647;28;19918;-83
2022/06/01 10:23:04;;;;;;;;;;;;;;;;;;5018891;28;19963;-81
2022/06/01 10:25:37;;;;;;;;;;;;;;;;;;5069317;28;19928;-81
2022/06/01 10:28:06;;;;;;;;;;;;;;;;;;5037658;28;19922;-82
2022/06/01 10:30:44;;;;;;;;;;;;;;;;;;5037113;28;19921;-81
2022/06/01 10:33:29;;;;;;;;;;;;;;;;;;5036715;28;19917;-81
2022/06/01 10:35:58;;;;;;;;;;;;;;;;;;5068959;28;19972;-81
2022/06/01 10:38:35;;;;;;;;;;;;;;;;;;5036365;28;20328;-81
2022/06/01 10:41:02;;;;;;;;;;;;;;;;;;5034880;28;20012;-81
2022/06/01 10:43:39;;;;;;;;;;;;;;;;;;5034908;28;19980;-81
2022/06/01 10:46:18;;;;;;;;;;;;;;;;;;5035342;28;20000;-81
2022/06/01 10:49:13;;;;;;;;;;;;;;;;;;5050956;28;19967;-81
2022/06/01 10:51:39;;;;;;;;;;;;;;;;;;5013021;28;19921;-80
2022/06/01 10:54:13;;;;;;;;;;;;;;;;;;5032942;28;19924;-80
2022/06/01 10:56:39;;;;;;;;;;;;;;;;;;5033278;28;20363;-80
2022/06/01 10:59:08;;;;;;;;;;;;;;;;;;5033300;28;19929;-80
2022/06/01 11:01:58;;;;;;;;;;;;;;;;;;5017989;28;19918;-80
2022/06/01 11:04:33;;;;;;;;;;;;;;;;;;5032611;28;19980;-80
2022/06/01 11:07:05;;;;;;;;;;;;;;;;;;5050507;28;19925;-80
2022/06/01 11:09:50;;;;;;;;;;;;;;;;;;5041634;28;19923;-80
2022/06/01 11:12:32;;;;;;;;;;;;;;;;;;5019622;28;19917;-80
2022/06/01 11:15:05;;;;;;;;;;;;;;;;;;5041987;28;19924;-80
2022/06/01 11:17:41;;;;;;;;;;;;;;;;;;5032516;28;20016;-79
2022/06/01 11:20:12;;;;;;;;;;;;;;;;;;5033149;28;19924;-80
2022/06/01 11:22:44;;;;;;;;;;;;;;;;;;5049604;28;19933;-80
2022/06/01 11:25:17;;;;;;;;;;;;;;;;;;5050423;28;20375;-80
2022/06/01 11:27:54;;;;;;;;;;;;;;;;;;5017123;28;19942;-80
2022/06/01 11:30:22;;;;;;;;;;;;;;;;;;5048801;28;20013;-80
2022/06/01 11:32:53;;;;;;;;;;;;;;;;;;5031990;28;20420;-80
2022/06/01 11:35:40;;;;;;;;;;;;;;;;;;5064495;28;19917;-80
2022/06/01 11:38:20;;;;;;;;;;;;;;;;;;5064640;28;20012;-80
2022/06/01 11:41:13;;;;;;;;;;;;;;;;;;5029691;28;20390;-80
2022/06/01 11:43:46;;;;;;;;;;;;;;;;;;5028748;28;19922;-79
2022/06/01 11:46:16;;;;;;;;;;;;;;;;;;5046647;28;19925;-79
2022/06/01 11:48:46;;;;;;;;;;;;;;;;;;5030319;28;20041;-79
2022/06/01 11:51:12;;;;;;;;;;;;;;;;;;5030261;28;19922;-79
2022/06/01 11:53:56;;;;;;;;;;;;;;;;;;5032911;28;20440;-79
2022/06/01 11:56:33;;;;;;;;;;;;;;;;;;5018633;28;19924;-79
2022/06/01 11:59:19;;;;;;;;;;;;;;;;;;5033459;28;19921;-79
2022/06/01 12:01:47;;;;;;;;;;;;;;;;;;5015464;28;19918;-80
2022/06/01 12:04:21;;;;;;;;;;;;;;;;;;5012900;28;19925;-80
2022/06/01 12:06:56;;;;;;;;;;;;;;;;;;5030168;28;19917;-80
2022/06/01 12:09:27;;;;;;;;;;;;;;;;;;4999191;28;19921;-77
2022/06/01 12:11:54;;;;;;;;;;;;;;;;;;4993657;28;20433;-77
2022/06/01 12:14:32;;;;;;;;;;;;;;;;;;5009781;28;19917;-78
2022/06/01 12:17:15;;;;;;;;;;;;;;;;;;5026889;28;19967;-76
2022/06/01 12:19:45;;;;;;;;;;;;;;;;;;5041899;28;19967;-80
2022/06/01 12:28:30;;;;;;;;;;;;;;;;;;5009172;28;19921;-74
2022/06/01 12:30:48;;;;;;;;;;;;;;;;;;5003679;28;19977;-73
2022/06/01 12:33:14;;;;;;;;;;;;;;;;;;5013279;28;19918;-77
2022/06/01 12:35:55;;;;;;;;;;;;;;;;;;5012247;28;19921;-75
2022/06/01 12:38:31;;;;;;;;;;;;;;;;;;5028282;28;19917;-75
2022/06/01 12:41:02;;;;;;;;;;;;;;;;;;5012940;28;19979;-75
2022/06/01 12:43:28;;;;;;;;;;;;;;;;;;5012818;28;19969;-75
2022/06/01 12:45:55;;;;;;;;;;;;;;;;;;5011459;28;19973;-76
2022/06/01 12:48:24;;;;;;;;;;;;;;;;;;5012617;28;19925;-76
2022/06/01 12:50:53;;;;;;;;;;;;;;;;;;5011010;28;20043;-75
2022/06/01 12:53:26;;;;;;;;;;;;;;;;;;5011962;28;19918;-75
2022/06/01 12:56:08;;;;;;;;;;;;;;;;;;5013071;28;19932;-76
2022/06/01 12:58:34;;;;;;;;;;;;;;;;;;5011744;28;19929;-76
2022/06/01 13:01:00;;;;;;;;;;;;;;;;;;5027047;28;19918;-75
2022/06/01 13:03:33;;;;;;;;;;;;;;;;;;5009335;28;20569;-75
2022/06/01 13:05:59;;;;;;;;;;;;;;;;;;5026419;28;19922;-75
2022/06/01 13:08:27;;;;;;;;;;;;;;;;;;5043154;28;19917;-75
2022/06/01 13:10:53;;;;;;;;;;;;;;;;;;4993460;28;19956;-75
2022/06/01 13:13:23;;;;;;;;;;;;;;;;;;5010017;28;20006;-75
2022/06/01 13:16:02;;;;;;;;;;;;;;;;;;4993708;28;20351;-75
2022/06/01 13:18:30;;;;;;;;;;;;;;;;;;5008361;28;19925;-75
2022/06/01 13:20:59;;;;;;;;;;;;;;;;;;5009749;28;20004;-75
2022/06/01 13:23:27;;;;;;;;;;;;;;;;;;4993487;28;19926;-75
2022/06/01 13:25:59;;;;;;;;;;;;;;;;;;4993700;28;19918;-75
2022/06/01 13:28:25;;;;;;;;;;;;;;;;;;5007996;28;19981;-76
2022/06/01 13:30:51;;;;;;;;;;;;;;;;;;5010985;28;19921;-75
2022/06/01 13:33:22;;;;;;;;;;;;;;;;;;5012371;28;20007;-76
2022/06/01 13:35:59;;;;;;;;;;;;;;;;;;5044376;28;19918;-76
2022/06/01 13:38:32;;;;;;;;;;;;;;;;;;5044276;28;20285;-75
2022/06/01 13:41:03;;;;;;;;;;;;;;;;;;5011543;28;19948;-74
2022/06/01 13:43:29;;;;;;;;;;;;;;;;;;5011519;28;19922;-74
2022/06/01 13:45:56;;;;;;;;;;;;;;;;;;5027429;28;20025;-74
2022/06/01 13:48:37;;;;;;;;;;;;;;;;;;5027274;28;19914;-74
2022/06/01 13:51:09;;;;;;;;;;;;;;;;;;5026698;28;19918;-74
2022/06/01 13:53:40;;;;;;;;;;;;;;;;;;5027203;28;19924;-74
2022/06/01 13:56:18;;;;;;;;;;;;;;;;;;5010754;28;19917;-74
2022/06/01 13:58:55;;;;;;;;;;;;;;;;;;5010560;28;19968;-74
2022/06/01 14:01:30;;;;;;;;;;;;;;;;;;5010816;28;19961;-74
2022/06/01 14:03:57;;;;;;;;;;;;;;;;;;5009428;28;19929;-74
2022/06/01 14:06:30;;;;;;;;;;;;;;;;;;5011185;28;20435;-74
2022/06/01 14:08:56;;;;;;;;;;;;;;;;;;4993845;28;19917;-74
2022/06/01 14:11:25;;;;;;;;;;;;;;;;;;5010142;28;20006;-74
2022/06/01 14:13:51;;;;;;;;;;;;;;;;;;5010819;28;19918;-74
2022/06/01 14:16:17;;;;;;;;;;;;;;;;;;4993120;28;20016;-74
2022/06/01 14:18:53;;;;;;;;;;;;;;;;;;5010886;28;19922;-74
2022/06/01 14:21:19;;;;;;;;;;;;;;;;;;5008544;28;19963;-76
2022/06/01 14:23:47;;;;;;;;;;;;;;;;;;5009778;28;19917;-76
2022/06/01 14:28:57;;;;;;;;;;;;;;;;;;5009647;28;19917;-74
2022/06/01 14:31:27;;;;;;;;;;;;;;;;;;5010055;28;19914;-74
2022/06/01 14:33:52;;;;;;;;;;;;;;;;;;5040948;27;19921;-74
2022/06/01 14:36:20;;;;;;;;;;;;;;;;;;5009293;28;19917;-76
2022/06/01 14:38:46;;;;;;;;;;;;;;;;;;5010328;28;20275;-76
2022/06/01 14:41:17;;;;;;;;;;;;;;;;;;5011144;28;19922;-76
2022/06/01 14:43:43;;;;;;;;;;;;;;;;;;5009506;28;19921;-76
2022/06/01 14:46:09;;;;;;;;;;;;;;;;;;5005956;28;19918;-75
2022/06/01 14:48:35;;;;;;;;;;;;;;;;;;4990340;28;19939;-75
2022/06/01 14:51:03;;;;;;;;;;;;;;;;;;4991631;28;19918;-76
2022/06/01 14:53:30;;;;;;;;;;;;;;;;;;4990490;28;19969;-76
2022/06/01 14:55:55;;;;;;;;;;;;;;;;;;4991533;28;19918;-76
2022/06/01 14:58:21;;;;;;;;;;;;;;;;;;5006413;28;19967;-76
2022/06/01 15:00:48;;;;;;;;;;;;;;;;;;4989519;28;19925;-76
2022/06/01 15:03:15;;;;;;;;;;;;;;;;;;4991504;28;20459;-74
2022/06/01 15:05:41;;;;;;;;;;;;;;;;;;5004810;28;19917;-74
2022/06/01 15:08:06;;;;;;;;;;;;;;;;;;5010468;28;19918;-74
2022/06/01 15:10:33;;;;;;;;;;;;;;;;;;5009576;28;19925;-74
2022/06/01 15:12:58;;;;;;;;;;;;;;;;;;5042552;28;19917;-74
2022/06/01 15:15:25;;;;;;;;;;;;;;;;;;5025899;28;20387;-75
2022/06/01 15:17:50;;;;;;;;;;;;;;;;;;5026097;28;20442;-75
2022/06/01 15:20:16;;;;;;;;;;;;;;;;;;5009566;28;20003;-75
2022/06/01 15:22:42;;;;;;;;;;;;;;;;;;5025895;28;19921;-75
2022/06/01 15:25:09;;;;;;;;;;;;;;;;;;5025894;28;19940;-76
2022/06/01 15:27:36;;;;;;;;;;;;;;;;;;5012320;28;19982;-75
2022/06/01 15:40:59;;;;;;;;;;;;;;;;;;5008298;28;19918;-74
2022/06/01 15:43:24;;;;;;;;;;;;;;;;;;5045625;28;20012;-74
2022/06/01 15:45:50;;;;;;;;;;;;;;;;;;5044429;28;20329;-74
2022/06/01 15:48:17;;;;;;;;;;;;;;;;;;5012557;28;19921;-74
2022/06/01 15:50:43;;;;;;;;;;;;;;;;;;5013053;28;19922;-73
2022/06/01 15:53:10;;;;;;;;;;;;;;;;;;5044748;28;19939;-75
2022/06/01 15:55:36;;;;;;;;;;;;;;;;;;5045663;28;19917;-75
2022/06/01 15:58:01;;;;;;;;;;;;;;;;;;5029063;28;19921;-72
2022/06/01 16:00:27;;;;;;;;;;;;;;;;;;5013436;28;19918;-80
2022/06/01 16:02:53;;;;;;;;;;;;;;;;;;5028481;28;19921;-75
2022/06/01 16:05:19;;;;;;;;;;;;;;;;;;5012340;28;19924;-76
2022/06/01 16:07:45;;;;;;;;;;;;;;;;;;5013491;28;19942;-75
2022/06/01 16:10:10;;;;;;;;;;;;;;;;;;5045494;28;20020;-76
2022/06/01 16:12:36;;;;;;;;;;;;;;;;;;5028715;28;19925;-76
2022/06/01 16:15:02;;;;;;;;;;;;;;;;;;5028519;28;20339;-75
2022/06/01 16:17:29;;;;;;;;;;;;;;;;;;5016621;28;19943;-82
2022/06/01 16:19:57;;;;;;;;;;;;;;;;;;5020240;28;19913;-78
2022/06/01 16:22:23;;;;;;;;;;;;;;;;;;5031395;28;19966;-78
2022/06/01 16:24:49;;;;;;;;;;;;;;;;;;5029449;28;19925;-78
2022/06/01 16:27:14;;;;;;;;;;;;;;;;;;5054869;28;19917;-79
2022/06/01 16:29:40;;;;;;;;;;;;;;;;;;5018197;28;19918;-77
2022/06/01 16:32:05;;;;;;;;;;;;;;;;;;5014860;28;20004;-78
2022/06/01 16:34:30;;;;;;;;;;;;;;;;;;5012303;28;20009;-78
2022/06/01 16:36:56;;;;;;;;;;;;;;;;;;4997670;28;20402;-78
2022/06/01 16:39:22;;;;;;;;;;;;;;;;;;5014509;28;19929;-80
2022/06/01 16:41:48;;;;;;;;;;;;;;;;;;5001191;28;20454;-79
2022/06/01 16:44:24;;;;;;;;;;;;;;;;;;4999977;28;19963;-77
2022/06/01 16:46:50;;;;;;;;;;;;;;;;;;5012732;28;19921;-78
2022/06/01 16:49:16;;;;;;;;;;;;;;;;;;4995733;28;20012;-76
2022/06/01 16:51:42;;;;;;;;;;;;;;;;;;4995780;28;19961;-77
2022/06/01 16:54:09;;;;;;;;;;;;;;;;;;5011809;28;20004;-77
2022/06/01 16:56:34;;;;;;;;;;;;;;;;;;4996905;28;19917;-77
2022/06/01 16:59:01;;;;;;;;;;;;;;;;;;5027932;28;19943;-77
2022/06/01 17:01:30;;;;;;;;;;;;;;;;;;5028643;28;19917;-77
2022/06/01 17:03:56;;;;;;;;;;;;;;;;;;5016307;28;19922;-78
2022/06/01 17:06:21;;;;;;;;;;;;;;;;;;5031648;28;19969;-79
2022/06/01 17:08:49;;;;;;;;;;;;;;;;;;5017923;28;19917;-78
2022/06/01 17:11:17;;;;;;;;;;;;;;;;;;5014938;28;20030;-78
2022/06/01 17:13:44;;;;;;;;;;;;;;;;;;5014277;28;20366;-78
2022/06/01 17:16:11;;;;;;;;;;;;;;;;;;5032080;28;20012;-77
2022/06/01 17:18:37;;;;;;;;;;;;;;;;;;5017398;28;19924;-78
2022/06/01 17:21:02;;;;;;;;;;;;;;;;;;5035004;28;20012;-79
2022/06/01 17:23:28;;;;;;;;;;;;;;;;;;5034043;28;19921;-78
2022/06/01 17:25:53;;;;;;;;;;;;;;;;;;5031608;28;19971;-77
2022/06/01 17:28:23;;;;;;;;;;;;;;;;;;5048021;28;19917;-78
2022/06/01 17:30:50;;;;;;;;;;;;;;;;;;5054122;28;19924;-78
2022/06/01 17:33:21;;;;;;;;;;;;;;;;;;5012457;28;19945;-78
2022/06/01 17:35:50;;;;;;;;;;;;;;;;;;5015362;28;20287;-78
2022/06/01 17:38:22;;;;;;;;;;;;;;;;;;5032771;28;19946;-78